sensor_id;sensor_type;location;lat;lon;timestamp;temperature;humidity
33271;DHT22;53180;51.344;6.152;2023-06-22T00:00:35;20.60;68.30
33271;DHT22;53180;51.344;6.152;2023-06-22T00:03:09;20.60;68.10
33271;DHT22;53180;51.344;6.152;2023-06-22T00:05:37;20.60;68.40
33271;DHT22;53180;51.344;6.152;2023-06-22T00:08:08;20.70;68.50
33271;DHT22;53180;51.344;6.152;2023-06-22T00:10:38;20.70;68.50
33271;DHT22;53180;51.344;6.152;2023-06-22T00:13:07;20.60;69.00
33271;DHT22;53180;51.344;6.152;2023-06-22T00:15:38;20.60;68.80
33271;DHT22;53180;51.344;6.152;2023-06-22T00:18:08;20.60;69.30
33271;DHT22;53180;51.344;6.152;2023-06-22T00:20:38;20.60;69.60
33271;DHT22;53180;51.344;6.152;2023-06-22T00:23:07;20.60;69.70
33271;DHT22;53180;51.344;6.152;2023-06-22T00:25:37;20.60;70.20
33271;DHT22;53180;51.344;6.152;2023-06-22T00:28:07;20.60;70.20
33271;DHT22;53180;51.344;6.152;2023-06-22T00:30:35;20.70;70.60
33271;DHT22;53180;51.344;6.152;2023-06-22T00:33:04;20.70;71.10
33271;DHT22;53180;51.344;6.152;2023-06-22T00:35:34;20.70;71.00
33271;DHT22;53180;51.344;6.152;2023-06-22T00:38:03;20.70;71.10
33271;DHT22;53180;51.344;6.152;2023-06-22T00:40:32;20.70;71.30
33271;DHT22;53180;51.344;6.152;2023-06-22T00:43:03;20.70;71.50
33271;DHT22;53180;51.344;6.152;2023-06-22T00:45:32;20.70;72.10
33271;DHT22;53180;51.344;6.152;2023-06-22T00:48:01;20.60;71.90
33271;DHT22;53180;51.344;6.152;2023-06-22T00:50:33;20.70;72.10
33271;DHT22;53180;51.344;6.152;2023-06-22T00:53:04;20.70;72.60
33271;DHT22;53180;51.344;6.152;2023-06-22T00:55:36;20.70;72.60
33271;DHT22;53180;51.344;6.152;2023-06-22T00:58:07;20.70;72.50
33271;DHT22;53180;51.344;6.152;2023-06-22T01:00:38;20.70;72.50
33271;DHT22;53180;51.344;6.152;2023-06-22T01:03:08;20.70;72.60
33271;DHT22;53180;51.344;6.152;2023-06-22T01:05:40;20.70;72.60
33271;DHT22;53180;51.344;6.152;2023-06-22T01:08:27;20.70;73.00
33271;DHT22;53180;51.344;6.152;2023-06-22T01:11:03;20.70;73.30
33271;DHT22;53180;51.344;6.152;2023-06-22T01:13:43;20.70;73.30
33271;DHT22;53180;51.344;6.152;2023-06-22T01:16:17;20.70;73.40
33271;DHT22;53180;51.344;6.152;2023-06-22T01:18:50;20.70;73.70
33271;DHT22;53180;51.344;6.152;2023-06-22T01:21:22;20.70;73.70
33271;DHT22;53180;51.344;6.152;2023-06-22T01:24:08;20.70;74.00
33271;DHT22;53180;51.344;6.152;2023-06-22T01:26:46;20.70;73.90
33271;DHT22;53180;51.344;6.152;2023-06-22T01:29:24;20.70;73.90
33271;DHT22;53180;51.344;6.152;2023-06-22T01:31:56;20.70;73.90
33271;DHT22;53180;51.344;6.152;2023-06-22T01:34:25;20.70;74.10
33271;DHT22;53180;51.344;6.152;2023-06-22T01:36:55;20.70;74.60
33271;DHT22;53180;51.344;6.152;2023-06-22T01:39:24;20.70;74.70
33271;DHT22;53180;51.344;6.152;2023-06-22T01:41:53;20.60;74.30
33271;DHT22;53180;51.344;6.152;2023-06-22T01:44:23;20.60;74.50
33271;DHT22;53180;51.344;6.152;2023-06-22T01:46:52;20.60;74.50
33271;DHT22;53180;51.344;6.152;2023-06-22T01:49:21;20.60;74.70
33271;DHT22;53180;51.344;6.152;2023-06-22T01:51:50;20.50;75.00
33271;DHT22;53180;51.344;6.152;2023-06-22T01:54:21;20.50;74.80
33271;DHT22;53180;51.344;6.152;2023-06-22T01:56:49;20.50;75.10
33271;DHT22;53180;51.344;6.152;2023-06-22T01:59:25;20.60;74.80
33271;DHT22;53180;51.344;6.152;2023-06-22T02:01:58;20.60;74.80
33271;DHT22;53180;51.344;6.152;2023-06-22T02:04:36;20.50;75.00
33271;DHT22;53180;51.344;6.152;2023-06-22T02:07:09;20.50;74.90
33271;DHT22;53180;51.344;6.152;2023-06-22T02:09:43;20.50;74.80
33271;DHT22;53180;51.344;6.152;2023-06-22T02:12:15;20.50;75.20
33271;DHT22;53180;51.344;6.152;2023-06-22T02:14:47;20.40;75.10
33271;DHT22;53180;51.344;6.152;2023-06-22T02:17:17;20.40;75.10
33271;DHT22;53180;51.344;6.152;2023-06-22T02:19:45;20.40;75.20
33271;DHT22;53180;51.344;6.152;2023-06-22T02:22:14;20.40;75.30
33271;DHT22;53180;51.344;6.152;2023-06-22T02:24:42;20.40;75.20
33271;DHT22;53180;51.344;6.152;2023-06-22T02:27:11;20.30;75.30
33271;DHT22;53180;51.344;6.152;2023-06-22T02:29:39;20.40;75.50
33271;DHT22;53180;51.344;6.152;2023-06-22T02:32:09;20.40;75.60
33271;DHT22;53180;51.344;6.152;2023-06-22T02:34:37;20.30;75.80
33271;DHT22;53180;51.344;6.152;2023-06-22T02:37:06;20.30;75.50
33271;DHT22;53180;51.344;6.152;2023-06-22T02:39:34;20.30;75.80
33271;DHT22;53180;51.344;6.152;2023-06-22T02:42:03;20.30;75.90
33271;DHT22;53180;51.344;6.152;2023-06-22T02:44:32;20.30;75.90
33271;DHT22;53180;51.344;6.152;2023-06-22T02:47:02;20.30;75.90
33271;DHT22;53180;51.344;6.152;2023-06-22T02:49:32;20.30;75.90
33271;DHT22;53180;51.344;6.152;2023-06-22T02:52:01;20.30;75.80
33271;DHT22;53180;51.344;6.152;2023-06-22T02:54:29;20.30;76.10
33271;DHT22;53180;51.344;6.152;2023-06-22T02:56:58;20.30;76.00
33271;DHT22;53180;51.344;6.152;2023-06-22T02:59:29;20.30;75.90
33271;DHT22;53180;51.344;6.152;2023-06-22T03:02:00;20.30;76.10
33271;DHT22;53180;51.344;6.152;2023-06-22T03:04:29;20.20;75.90
33271;DHT22;53180;51.344;6.152;2023-06-22T03:06:59;20.30;76.00
33271;DHT22;53180;51.344;6.152;2023-06-22T03:09:28;20.20;76.10
33271;DHT22;53180;51.344;6.152;2023-06-22T03:11:59;20.20;76.10
33271;DHT22;53180;51.344;6.152;2023-06-22T03:14:28;20.20;76.30
33271;DHT22;53180;51.344;6.152;2023-06-22T03:16:57;20.20;76.30
33271;DHT22;53180;51.344;6.152;2023-06-22T03:19:29;20.20;76.50
33271;DHT22;53180;51.344;6.152;2023-06-22T03:22:00;20.10;76.40
33271;DHT22;53180;51.344;6.152;2023-06-22T03:24:29;20.10;77.30
33271;DHT22;53180;51.344;6.152;2023-06-22T03:26:57;20.10;76.90
33271;DHT22;53180;51.344;6.152;2023-06-22T03:29:26;20.10;76.70
33271;DHT22;53180;51.344;6.152;2023-06-22T03:31:57;20.00;76.90
33271;DHT22;53180;51.344;6.152;2023-06-22T03:34:28;20.00;77.30
33271;DHT22;53180;51.344;6.152;2023-06-22T03:37:03;20.00;77.50
33271;DHT22;53180;51.344;6.152;2023-06-22T03:39:33;19.90;77.60
33271;DHT22;53180;51.344;6.152;2023-06-22T03:42:02;19.90;77.30
33271;DHT22;53180;51.344;6.152;2023-06-22T03:44:30;19.90;77.30
33271;DHT22;53180;51.344;6.152;2023-06-22T03:46:59;19.90;77.40
33271;DHT22;53180;51.344;6.152;2023-06-22T03:49:29;19.90;77.20
33271;DHT22;53180;51.344;6.152;2023-06-22T03:52:01;19.90;77.30
33271;DHT22;53180;51.344;6.152;2023-06-22T03:54:31;19.90;77.40
33271;DHT22;53180;51.344;6.152;2023-06-22T03:56:59;19.90;77.50
33271;DHT22;53180;51.344;6.152;2023-06-22T03:59:27;19.90;77.40
33271;DHT22;53180;51.344;6.152;2023-06-22T04:01:59;19.90;77.40
33271;DHT22;53180;51.344;6.152;2023-06-22T04:04:27;19.90;77.40
33271;DHT22;53180;51.344;6.152;2023-06-22T04:06:56;19.90;77.50
33271;DHT22;53180;51.344;6.152;2023-06-22T04:09:25;19.80;77.50
33271;DHT22;53180;51.344;6.152;2023-06-22T04:11:54;19.90;77.60
33271;DHT22;53180;51.344;6.152;2023-06-22T04:14:22;19.80;77.40
33271;DHT22;53180;51.344;6.152;2023-06-22T04:16:51;19.80;77.70
33271;DHT22;53180;51.344;6.152;2023-06-22T04:19:19;19.90;77.50
33271;DHT22;53180;51.344;6.152;2023-06-22T04:21:48;19.90;77.40
33271;DHT22;53180;51.344;6.152;2023-06-22T04:24:16;19.90;77.90
33271;DHT22;53180;51.344;6.152;2023-06-22T04:26:46;19.90;78.00
33271;DHT22;53180;51.344;6.152;2023-06-22T04:29:14;19.80;77.80
33271;DHT22;53180;51.344;6.152;2023-06-22T04:31:42;19.80;77.80
33271;DHT22;53180;51.344;6.152;2023-06-22T04:34:11;19.90;78.00
33271;DHT22;53180;51.344;6.152;2023-06-22T04:36:40;19.80;77.90
33271;DHT22;53180;51.344;6.152;2023-06-22T04:39:10;19.80;78.10
33271;DHT22;53180;51.344;6.152;2023-06-22T04:41:40;19.80;78.00
33271;DHT22;53180;51.344;6.152;2023-06-22T04:44:13;19.90;78.00
33271;DHT22;53180;51.344;6.152;2023-06-22T04:46:50;19.80;78.00
33271;DHT22;53180;51.344;6.152;2023-06-22T04:49:21;19.90;78.10
33271;DHT22;53180;51.344;6.152;2023-06-22T04:51:49;19.90;78.00
33271;DHT22;53180;51.344;6.152;2023-06-22T04:54:18;19.90;78.00
33271;DHT22;53180;51.344;6.152;2023-06-22T04:56:47;19.90;77.80
33271;DHT22;53180;51.344;6.152;2023-06-22T04:59:26;19.90;77.90
33271;DHT22;53180;51.344;6.152;2023-06-22T05:01:57;19.90;77.80
33271;DHT22;53180;51.344;6.152;2023-06-22T05:04:26;20.00;77.80
33271;DHT22;53180;51.344;6.152;2023-06-22T05:06:59;20.00;78.00
33271;DHT22;53180;51.344;6.152;2023-06-22T05:09:31;20.00;77.70
33271;DHT22;53180;51.344;6.152;2023-06-22T05:12:00;20.00;77.90
33271;DHT22;53180;51.344;6.152;2023-06-22T05:14:31;20.00;77.70
33271;DHT22;53180;51.344;6.152;2023-06-22T05:16:59;20.00;77.70
33271;DHT22;53180;51.344;6.152;2023-06-22T05:19:34;20.10;77.90
33271;DHT22;53180;51.344;6.152;2023-06-22T05:22:02;20.00;77.70
33271;DHT22;53180;51.344;6.152;2023-06-22T05:24:31;20.10;77.70
33271;DHT22;53180;51.344;6.152;2023-06-22T05:26:59;20.10;77.70
33271;DHT22;53180;51.344;6.152;2023-06-22T05:29:28;20.10;77.80
33271;DHT22;53180;51.344;6.152;2023-06-22T05:31:57;20.10;77.80
33271;DHT22;53180;51.344;6.152;2023-06-22T05:34:25;20.10;78.10
33271;DHT22;53180;51.344;6.152;2023-06-22T05:36:54;20.20;78.30
33271;DHT22;53180;51.344;6.152;2023-06-22T05:39:22;20.20;78.00
33271;DHT22;53180;51.344;6.152;2023-06-22T05:41:51;20.20;78.10
33271;DHT22;53180;51.344;6.152;2023-06-22T05:44:20;20.20;77.90
33271;DHT22;53180;51.344;6.152;2023-06-22T05:46:48;20.20;77.80
33271;DHT22;53180;51.344;6.152;2023-06-22T05:49:18;20.30;77.60
33271;DHT22;53180;51.344;6.152;2023-06-22T05:51:48;20.30;77.70
33271;DHT22;53180;51.344;6.152;2023-06-22T05:54:17;20.30;77.80
33271;DHT22;53180;51.344;6.152;2023-06-22T05:56:46;20.30;77.60
33271;DHT22;53180;51.344;6.152;2023-06-22T05:59:14;20.30;77.60
33271;DHT22;53180;51.344;6.152;2023-06-22T06:01:43;20.30;77.80
33271;DHT22;53180;51.344;6.152;2023-06-22T06:04:18;20.30;77.60
33271;DHT22;53180;51.344;6.152;2023-06-22T06:06:47;20.30;77.60
33271;DHT22;53180;51.344;6.152;2023-06-22T06:09:15;20.30;77.60
33271;DHT22;53180;51.344;6.152;2023-06-22T06:11:44;20.30;77.80
33271;DHT22;53180;51.344;6.152;2023-06-22T06:14:12;20.30;78.20
33271;DHT22;53180;51.344;6.152;2023-06-22T06:16:40;20.30;78.60
33271;DHT22;53180;51.344;6.152;2023-06-22T06:19:09;20.30;78.90
33271;DHT22;53180;51.344;6.152;2023-06-22T06:21:38;20.30;79.40
33271;DHT22;53180;51.344;6.152;2023-06-22T06:24:07;20.30;79.30
33271;DHT22;53180;51.344;6.152;2023-06-22T06:26:35;20.30;79.50
33271;DHT22;53180;51.344;6.152;2023-06-22T06:29:05;20.30;79.30
33271;DHT22;53180;51.344;6.152;2023-06-22T06:31:33;20.30;79.00
33271;DHT22;53180;51.344;6.152;2023-06-22T06:34:03;20.30;79.30
33271;DHT22;53180;51.344;6.152;2023-06-22T06:36:32;20.30;79.20
33271;DHT22;53180;51.344;6.152;2023-06-22T06:39:02;20.30;79.40
33271;DHT22;53180;51.344;6.152;2023-06-22T06:41:31;20.30;79.50
33271;DHT22;53180;51.344;6.152;2023-06-22T06:43:59;20.30;79.30
33271;DHT22;53180;51.344;6.152;2023-06-22T06:46:28;20.30;79.10
33271;DHT22;53180;51.344;6.152;2023-06-22T06:48:57;20.30;78.90
33271;DHT22;53180;51.344;6.152;2023-06-22T06:51:25;20.30;79.10
33271;DHT22;53180;51.344;6.152;2023-06-22T06:53:53;20.30;79.00
33271;DHT22;53180;51.344;6.152;2023-06-22T06:56:23;20.30;79.00
33271;DHT22;53180;51.344;6.152;2023-06-22T06:58:51;20.30;79.30
33271;DHT22;53180;51.344;6.152;2023-06-22T07:01:20;20.40;79.00
33271;DHT22;53180;51.344;6.152;2023-06-22T07:03:48;20.40;79.10
33271;DHT22;53180;51.344;6.152;2023-06-22T07:06:17;20.40;79.00
33271;DHT22;53180;51.344;6.152;2023-06-22T07:08:45;20.50;78.80
33271;DHT22;53180;51.344;6.152;2023-06-22T07:11:13;20.50;78.80
33271;DHT22;53180;51.344;6.152;2023-06-22T07:13:43;20.50;78.60
33271;DHT22;53180;51.344;6.152;2023-06-22T07:16:11;20.50;78.50
33271;DHT22;53180;51.344;6.152;2023-06-22T07:18:40;20.50;78.80
33271;DHT22;53180;51.344;6.152;2023-06-22T07:21:08;20.50;78.90
33271;DHT22;53180;51.344;6.152;2023-06-22T07:23:37;20.60;79.00
33271;DHT22;53180;51.344;6.152;2023-06-22T07:26:05;20.60;79.00
33271;DHT22;53180;51.344;6.152;2023-06-22T07:28:35;20.70;79.00
33271;DHT22;53180;51.344;6.152;2023-06-22T07:31:06;20.70;78.80
33271;DHT22;53180;51.344;6.152;2023-06-22T07:33:35;20.80;79.10
33271;DHT22;53180;51.344;6.152;2023-06-22T07:36:03;20.80;78.40
33271;DHT22;53180;51.344;6.152;2023-06-22T07:38:34;20.80;78.50
33271;DHT22;53180;51.344;6.152;2023-06-22T07:41:04;20.80;78.30
33271;DHT22;53180;51.344;6.152;2023-06-22T07:43:33;20.90;78.20
33271;DHT22;53180;51.344;6.152;2023-06-22T07:46:03;20.90;77.80
33271;DHT22;53180;51.344;6.152;2023-06-22T07:48:37;21.00;78.00
33271;DHT22;53180;51.344;6.152;2023-06-22T07:51:06;21.00;77.80
33271;DHT22;53180;51.344;6.152;2023-06-22T07:53:34;21.10;77.70
33271;DHT22;53180;51.344;6.152;2023-06-22T07:56:03;21.10;77.60
33271;DHT22;53180;51.344;6.152;2023-06-22T07:58:34;21.10;77.20
33271;DHT22;53180;51.344;6.152;2023-06-22T08:01:02;21.10;77.30
33271;DHT22;53180;51.344;6.152;2023-06-22T08:03:32;21.10;77.40
33271;DHT22;53180;51.344;6.152;2023-06-22T08:06:01;21.10;77.40
33271;DHT22;53180;51.344;6.152;2023-06-22T08:08:29;21.10;77.30
33271;DHT22;53180;51.344;6.152;2023-06-22T08:10:58;21.20;77.40
33271;DHT22;53180;51.344;6.152;2023-06-22T08:13:27;21.20;77.20
33271;DHT22;53180;51.344;6.152;2023-06-22T08:15:55;21.30;77.30
33271;DHT22;53180;51.344;6.152;2023-06-22T08:18:24;21.30;77.00
33271;DHT22;53180;51.344;6.152;2023-06-22T08:20:53;21.30;76.90
33271;DHT22;53180;51.344;6.152;2023-06-22T08:23:22;21.40;76.70
33271;DHT22;53180;51.344;6.152;2023-06-22T08:25:50;21.50;76.70
33271;DHT22;53180;51.344;6.152;2023-06-22T08:28:19;21.70;76.40
33271;DHT22;53180;51.344;6.152;2023-06-22T08:30:47;21.70;76.20
33271;DHT22;53180;51.344;6.152;2023-06-22T08:33:15;21.80;76.00
33271;DHT22;53180;51.344;6.152;2023-06-22T08:35:55;21.80;75.90
33271;DHT22;53180;51.344;6.152;2023-06-22T08:38:23;21.90;75.90
33271;DHT22;53180;51.344;6.152;2023-06-22T08:40:52;21.90;76.00
33271;DHT22;53180;51.344;6.152;2023-06-22T08:43:20;22.00;75.70
33271;DHT22;53180;51.344;6.152;2023-06-22T08:45:48;22.10;74.70
33271;DHT22;53180;51.344;6.152;2023-06-22T08:48:17;22.20;74.40
33271;DHT22;53180;51.344;6.152;2023-06-22T08:50:45;22.40;74.90
33271;DHT22;53180;51.344;6.152;2023-06-22T08:53:15;22.70;75.20
33271;DHT22;53180;51.344;6.152;2023-06-22T08:55:43;22.90;74.10
33271;DHT22;53180;51.344;6.152;2023-06-22T08:58:12;23.00;72.90
33271;DHT22;53180;51.344;6.152;2023-06-22T09:00:40;23.00;73.10
33271;DHT22;53180;51.344;6.152;2023-06-22T09:03:08;23.10;72.70
33271;DHT22;53180;51.344;6.152;2023-06-22T09:05:37;23.30;73.20
33271;DHT22;53180;51.344;6.152;2023-06-22T09:08:06;23.60;72.80
33271;DHT22;53180;51.344;6.152;2023-06-22T09:10:35;23.90;70.80
33271;DHT22;53180;51.344;6.152;2023-06-22T09:13:06;24.00;70.90
33271;DHT22;53180;51.344;6.152;2023-06-22T09:15:35;23.90;70.30
33271;DHT22;53180;51.344;6.152;2023-06-22T09:18:03;23.70;69.80
33271;DHT22;53180;51.344;6.152;2023-06-22T09:20:32;23.70;70.50
33271;DHT22;53180;51.344;6.152;2023-06-22T09:23:00;23.70;70.40
33271;DHT22;53180;51.344;6.152;2023-06-22T09:25:29;23.60;70.70
33271;DHT22;53180;51.344;6.152;2023-06-22T09:27:59;23.50;70.90
33271;DHT22;53180;51.344;6.152;2023-06-22T09:30:27;23.50;71.00
33271;DHT22;53180;51.344;6.152;2023-06-22T09:32:56;23.50;71.20
33271;DHT22;53180;51.344;6.152;2023-06-22T09:35:25;23.30;71.30
33271;DHT22;53180;51.344;6.152;2023-06-22T09:37:53;23.30;71.50
33271;DHT22;53180;51.344;6.152;2023-06-22T09:40:29;23.20;71.60
33271;DHT22;53180;51.344;6.152;2023-06-22T09:43:01;23.20;71.80
33271;DHT22;53180;51.344;6.152;2023-06-22T09:45:29;23.10;71.90
33271;DHT22;53180;51.344;6.152;2023-06-22T09:47:57;23.20;72.30
33271;DHT22;53180;51.344;6.152;2023-06-22T09:50:26;23.10;72.50
33271;DHT22;53180;51.344;6.152;2023-06-22T09:52:55;23.20;72.90
33271;DHT22;53180;51.344;6.152;2023-06-22T09:55:23;23.20;72.90
33271;DHT22;53180;51.344;6.152;2023-06-22T09:57:53;23.20;73.00
33271;DHT22;53180;51.344;6.152;2023-06-22T10:00:24;23.20;73.10
33271;DHT22;53180;51.344;6.152;2023-06-22T10:02:53;23.30;73.20
33271;DHT22;53180;51.344;6.152;2023-06-22T10:05:26;23.30;73.00
33271;DHT22;53180;51.344;6.152;2023-06-22T10:07:55;23.40;73.00
33271;DHT22;53180;51.344;6.152;2023-06-22T10:10:24;23.50;73.20
33271;DHT22;53180;51.344;6.152;2023-06-22T10:12:56;23.50;72.80
33271;DHT22;53180;51.344;6.152;2023-06-22T10:15:26;23.50;73.00
33271;DHT22;53180;51.344;6.152;2023-06-22T10:17:55;23.60;72.70
33271;DHT22;53180;51.344;6.152;2023-06-22T10:20:24;23.60;72.10
33271;DHT22;53180;51.344;6.152;2023-06-22T10:22:53;23.50;72.10
33271;DHT22;53180;51.344;6.152;2023-06-22T10:25:25;23.50;71.90
33271;DHT22;53180;51.344;6.152;2023-06-22T10:27:54;23.50;72.00
33271;DHT22;53180;51.344;6.152;2023-06-22T10:30:23;23.40;72.10
33271;DHT22;53180;51.344;6.152;2023-06-22T10:32:53;23.40;72.50
33271;DHT22;53180;51.344;6.152;2023-06-22T10:35:21;23.40;72.10
33271;DHT22;53180;51.344;6.152;2023-06-22T10:37:49;23.40;72.60
33271;DHT22;53180;51.344;6.152;2023-06-22T10:40:19;23.40;72.80
33271;DHT22;53180;51.344;6.152;2023-06-22T10:42:47;23.40;72.60
33271;DHT22;53180;51.344;6.152;2023-06-22T10:45:17;23.40;73.00
33271;DHT22;53180;51.344;6.152;2023-06-22T10:47:45;23.40;72.60
33271;DHT22;53180;51.344;6.152;2023-06-22T10:50:15;23.30;72.40
33271;DHT22;53180;51.344;6.152;2023-06-22T10:52:44;23.30;72.60
33271;DHT22;53180;51.344;6.152;2023-06-22T10:55:12;23.30;73.00
33271;DHT22;53180;51.344;6.152;2023-06-22T10:57:40;23.30;73.80
33271;DHT22;53180;51.344;6.152;2023-06-22T11:00:12;23.30;74.50
33271;DHT22;53180;51.344;6.152;2023-06-22T11:02:41;23.20;75.60
33271;DHT22;53180;51.344;6.152;2023-06-22T11:05:10;23.20;76.40
33271;DHT22;53180;51.344;6.152;2023-06-22T11:07:43;23.20;76.70
33271;DHT22;53180;51.344;6.152;2023-06-22T11:10:13;23.10;76.70
33271;DHT22;53180;51.344;6.152;2023-06-22T11:12:41;23.00;77.20
33271;DHT22;53180;51.344;6.152;2023-06-22T11:15:10;23.00;77.30
33271;DHT22;53180;51.344;6.152;2023-06-22T11:17:39;23.00;77.00
33271;DHT22;53180;51.344;6.152;2023-06-22T11:20:08;22.90;77.20
33271;DHT22;53180;51.344;6.152;2023-06-22T11:22:38;22.90;77.60
33271;DHT22;53180;51.344;6.152;2023-06-22T11:25:09;22.90;78.20
33271;DHT22;53180;51.344;6.152;2023-06-22T11:27:39;22.80;78.50
33271;DHT22;53180;51.344;6.152;2023-06-22T11:30:08;22.80;79.10
33271;DHT22;53180;51.344;6.152;2023-06-22T11:32:37;22.70;79.50
33271;DHT22;53180;51.344;6.152;2023-06-22T11:35:06;22.70;79.70
33271;DHT22;53180;51.344;6.152;2023-06-22T11:37:35;22.60;79.60
33271;DHT22;53180;51.344;6.152;2023-06-22T11:40:04;22.60;79.90
33271;DHT22;53180;51.344;6.152;2023-06-22T11:42:37;22.50;79.60
33271;DHT22;53180;51.344;6.152;2023-06-22T11:45:08;22.50;80.40
33271;DHT22;53180;51.344;6.152;2023-06-22T11:47:37;22.40;80.40
33271;DHT22;53180;51.344;6.152;2023-06-22T11:50:07;22.30;80.40
33271;DHT22;53180;51.344;6.152;2023-06-22T11:52:36;22.20;80.50
33271;DHT22;53180;51.344;6.152;2023-06-22T11:55:05;22.30;81.20
33271;DHT22;53180;51.344;6.152;2023-06-22T11:57:39;22.30;81.80
33271;DHT22;53180;51.344;6.152;2023-06-22T12:00:21;22.30;82.20
33271;DHT22;53180;51.344;6.152;2023-06-22T12:02:55;22.30;82.50
33271;DHT22;53180;51.344;6.152;2023-06-22T12:05:27;22.30;82.70
33271;DHT22;53180;51.344;6.152;2023-06-22T12:07:55;22.50;83.30
33271;DHT22;53180;51.344;6.152;2023-06-22T12:10:25;22.60;83.30
33271;DHT22;53180;51.344;6.152;2023-06-22T12:13:00;22.70;83.40
33271;DHT22;53180;51.344;6.152;2023-06-22T12:15:28;22.70;83.00
33271;DHT22;53180;51.344;6.152;2023-06-22T12:17:57;22.80;83.00
33271;DHT22;53180;51.344;6.152;2023-06-22T12:20:25;22.80;82.60
33271;DHT22;53180;51.344;6.152;2023-06-22T12:22:54;22.70;82.00
33271;DHT22;53180;51.344;6.152;2023-06-22T12:25:24;22.80;82.60
33271;DHT22;53180;51.344;6.152;2023-06-22T12:27:53;22.70;82.40
33271;DHT22;53180;51.344;6.152;2023-06-22T12:30:23;22.60;81.70
33271;DHT22;53180;51.344;6.152;2023-06-22T12:32:52;22.60;81.70
33271;DHT22;53180;51.344;6.152;2023-06-22T12:35:22;22.60;81.80
33271;DHT22;53180;51.344;6.152;2023-06-22T12:37:51;22.70;81.70
33271;DHT22;53180;51.344;6.152;2023-06-22T12:40:19;22.60;81.50
33271;DHT22;53180;51.344;6.152;2023-06-22T12:42:51;22.60;81.90
33271;DHT22;53180;51.344;6.152;2023-06-22T12:45:19;22.50;81.60
33271;DHT22;53180;51.344;6.152;2023-06-22T12:47:50;22.60;81.70
33271;DHT22;53180;51.344;6.152;2023-06-22T12:50:18;22.60;81.90
33271;DHT22;53180;51.344;6.152;2023-06-22T12:52:46;22.70;81.70
33271;DHT22;53180;51.344;6.152;2023-06-22T12:55:15;22.70;82.30
33271;DHT22;53180;51.344;6.152;2023-06-22T12:57:43;22.70;82.50
33271;DHT22;53180;51.344;6.152;2023-06-22T13:00:12;22.60;81.70
33271;DHT22;53180;51.344;6.152;2023-06-22T13:02:41;22.60;81.20
33271;DHT22;53180;51.344;6.152;2023-06-22T13:05:11;22.60;81.30
33271;DHT22;53180;51.344;6.152;2023-06-22T13:07:39;22.60;81.00
33271;DHT22;53180;51.344;6.152;2023-06-22T13:10:09;22.70;81.00
33271;DHT22;53180;51.344;6.152;2023-06-22T13:12:37;22.70;80.60
33271;DHT22;53180;51.344;6.152;2023-06-22T13:15:07;22.70;80.60
33271;DHT22;53180;51.344;6.152;2023-06-22T13:17:35;22.70;79.90
33271;DHT22;53180;51.344;6.152;2023-06-22T13:20:05;22.60;80.60
33271;DHT22;53180;51.344;6.152;2023-06-22T13:22:35;22.70;80.50
33271;DHT22;53180;51.344;6.152;2023-06-22T13:25:08;22.70;80.20
33271;DHT22;53180;51.344;6.152;2023-06-22T13:27:39;22.70;80.60
33271;DHT22;53180;51.344;6.152;2023-06-22T13:30:08;22.70;80.40
33271;DHT22;53180;51.344;6.152;2023-06-22T13:32:40;22.60;79.90
33271;DHT22;53180;51.344;6.152;2023-06-22T13:35:10;22.50;79.90
33271;DHT22;53180;51.344;6.152;2023-06-22T13:37:40;22.50;80.50
33271;DHT22;53180;51.344;6.152;2023-06-22T13:40:09;22.50;80.40
33271;DHT22;53180;51.344;6.152;2023-06-22T13:42:38;22.50;80.50
33271;DHT22;53180;51.344;6.152;2023-06-22T13:45:07;22.50;80.50
33271;DHT22;53180;51.344;6.152;2023-06-22T13:47:36;22.40;79.50
33271;DHT22;53180;51.344;6.152;2023-06-22T13:50:05;22.40;79.30
33271;DHT22;53180;51.344;6.152;2023-06-22T13:52:34;22.30;79.50
33271;DHT22;53180;51.344;6.152;2023-06-22T13:55:07;22.30;79.60
33271;DHT22;53180;51.344;6.152;2023-06-22T13:57:36;22.20;79.70
33271;DHT22;53180;51.344;6.152;2023-06-22T14:00:06;22.20;79.80
33271;DHT22;53180;51.344;6.152;2023-06-22T14:02:35;22.20;79.80
33271;DHT22;53180;51.344;6.152;2023-06-22T14:05:04;22.20;79.90
33271;DHT22;53180;51.344;6.152;2023-06-22T14:07:33;22.20;79.20
33271;DHT22;53180;51.344;6.152;2023-06-22T14:10:03;22.10;79.40
33271;DHT22;53180;51.344;6.152;2023-06-22T14:12:33;22.10;79.20
33271;DHT22;53180;51.344;6.152;2023-06-22T14:15:02;22.00;79.50
33271;DHT22;53180;51.344;6.152;2023-06-22T14:17:30;22.10;79.60
33271;DHT22;53180;51.344;6.152;2023-06-22T14:19:59;22.10;79.70
33271;DHT22;53180;51.344;6.152;2023-06-22T14:22:28;22.10;79.70
33271;DHT22;53180;51.344;6.152;2023-06-22T14:24:56;22.10;79.50
33271;DHT22;53180;51.344;6.152;2023-06-22T14:27:25;22.10;79.10
33271;DHT22;53180;51.344;6.152;2023-06-22T14:29:55;22.00;79.30
33271;DHT22;53180;51.344;6.152;2023-06-22T14:32:23;22.00;79.20
33271;DHT22;53180;51.344;6.152;2023-06-22T14:34:52;22.00;79.30
33271;DHT22;53180;51.344;6.152;2023-06-22T14:37:20;22.00;79.50
33271;DHT22;53180;51.344;6.152;2023-06-22T14:39:50;21.90;79.20
33271;DHT22;53180;51.344;6.152;2023-06-22T14:42:18;21.90;79.40
33271;DHT22;53180;51.344;6.152;2023-06-22T14:44:48;21.80;79.30
33271;DHT22;53180;51.344;6.152;2023-06-22T14:47:18;21.80;79.40
33271;DHT22;53180;51.344;6.152;2023-06-22T14:49:46;21.80;79.30
33271;DHT22;53180;51.344;6.152;2023-06-22T14:52:15;21.80;79.50
33271;DHT22;53180;51.344;6.152;2023-06-22T14:54:43;21.80;79.60
33271;DHT22;53180;51.344;6.152;2023-06-22T14:57:12;21.70;79.60
33271;DHT22;53180;51.344;6.152;2023-06-22T14:59:44;21.70;80.00
33271;DHT22;53180;51.344;6.152;2023-06-22T15:02:13;21.70;80.30
33271;DHT22;53180;51.344;6.152;2023-06-22T15:04:43;21.60;80.80
33271;DHT22;53180;51.344;6.152;2023-06-22T15:07:11;21.50;81.20
33271;DHT22;53180;51.344;6.152;2023-06-22T15:09:39;21.50;81.80
33271;DHT22;53180;51.344;6.152;2023-06-22T15:12:09;21.40;82.70
33271;DHT22;53180;51.344;6.152;2023-06-22T15:14:39;21.30;83.10
33271;DHT22;53180;51.344;6.152;2023-06-22T15:17:07;21.30;83.70
33271;DHT22;53180;51.344;6.152;2023-06-22T15:19:36;21.20;84.40
33271;DHT22;53180;51.344;6.152;2023-06-22T15:22:07;21.20;85.20
33271;DHT22;53180;51.344;6.152;2023-06-22T15:24:35;21.10;85.80
33271;DHT22;53180;51.344;6.152;2023-06-22T15:27:04;21.00;86.80
33271;DHT22;53180;51.344;6.152;2023-06-22T15:29:32;20.80;87.90
33271;DHT22;53180;51.344;6.152;2023-06-22T15:32:04;20.60;89.00
33271;DHT22;53180;51.344;6.152;2023-06-22T15:34:33;20.40;89.50
33271;DHT22;53180;51.344;6.152;2023-06-22T15:37:01;20.30;90.00
33271;DHT22;53180;51.344;6.152;2023-06-22T15:39:31;20.20;90.50
33271;DHT22;53180;51.344;6.152;2023-06-22T15:41:59;20.10;90.90
33271;DHT22;53180;51.344;6.152;2023-06-22T15:44:28;20.00;91.10